Time;durP1;ratioP1;P1;durP2;ratioP2;P2;SDS_P1;SDS_P2;PMS_P1;PMS_P2;Temp;Humidity;BMP_temperature;BMP_pressure;BME280_temperature;BME280_humidity;BME280_pressure;Samples;Min_cycle;Max_cycle;Signal;HPM_P1;HPM_P2
2022/07/26 00:01:58;;;;;;;;;1.00;1.00;;;;;23.06;49.26;101463.78;4962604;28;45403;-59
2022/07/26 00:04:24;;;;;;;;;0.50;0.50;;;;;23.06;49.09;101462.94;4962657;28;45235;-59
2022/07/26 00:06:49;;;;;;;;;2.00;0.00;;;;;23.04;49.01;101464.94;4962899;28;45446;-58
2022/07/26 00:09:15;;;;;;;;;1.00;1.00;;;;;23.01;48.82;101468.78;4977551;28;45322;-59
2022/07/26 00:11:40;;;;;;;;;4.00;0.00;;;;;23.01;49.17;101466.09;4962616;28;45256;-59
2022/07/26 00:14:07;;;;;;;;;0.75;0.00;;;;;22.99;49.13;101464.56;4962505;28;45342;-58
2022/07/26 00:16:32;;;;;;;;;1.00;1.00;;;;;22.96;48.68;101465.72;4962575;28;45408;-58
2022/07/26 00:18:58;;;;;;;;;2.75;1.00;;;;;22.93;49.28;101465.19;4962418;28;45274;-59
2022/07/26 00:21:24;;;;;;;;;1.00;1.00;;;;;22.91;49.64;101461.78;4962423;28;45354;-58
2022/07/26 00:23:50;;;;;;;;;1.00;1.00;;;;;22.88;49.21;101462.09;4962591;28;45235;-59
2022/07/26 00:26:15;;;;;;;;;0.50;0.50;;;;;22.86;49.69;101464.09;4962243;28;45230;-59
2022/07/26 00:28:41;;;;;;;;;1.75;0.50;;;;;22.83;49.78;101460.69;4962505;28;45505;-59
2022/07/26 00:31:07;;;;;;;;;1.00;1.00;;;;;22.84;49.51;101466.91;4962044;28;46123;-59
2022/07/26 00:33:33;;;;;;;;;1.50;0.75;;;;;22.83;49.57;101463.38;4962250;28;45171;-58
2022/07/26 00:35:59;;;;;;;;;1.00;1.00;;;;;22.81;49.65;101470.72;4960828;28;45600;-59
2022/07/26 00:38:25;;;;;;;;;1.00;1.00;;;;;22.78;49.58;101467.53;4948529;28;45297;-59
2022/07/26 00:40:50;;;;;;;;;0.25;0.25;;;;;22.75;49.52;101459.75;4958313;28;45325;-59
2022/07/26 00:43:16;;;;;;;;;1.00;1.00;;;;;22.73;49.72;101465.28;4962228;28;45274;-59
2022/07/26 00:45:42;;;;;;;;;3.00;1.00;;;;;22.70;49.54;101467.44;4962235;28;45278;-59
2022/07/26 00:48:07;;;;;;;;;0.50;0.50;;;;;22.68;49.81;101461.38;4962336;28;45310;-59
2022/07/26 00:50:33;;;;;;;;;1.00;1.00;;;;;22.66;49.91;101460.66;4961848;28;46340;-59
2022/07/26 00:52:59;;;;;;;;;1.00;1.00;;;;;22.65;50.00;101458.97;4962056;28;45379;-59
2022/07/26 00:55:24;;;;;;;;;3.00;1.00;;;;;22.61;50.34;101454.94;4961939;28;45223;-59
2022/07/26 00:57:50;;;;;;;;;2.25;1.75;;;;;22.60;50.30;101461.28;4962326;28;45210;-59
2022/07/26 01:00:19;;;;;;;;;1.00;1.00;;;;;22.58;50.10;101456.06;4961881;28;45986;-59
2022/07/26 01:02:45;;;;;;;;;1.00;0.00;;;;;22.53;50.39;101451.16;4961708;28;45387;-59
2022/07/26 01:05:11;;;;;;;;;3.00;1.25;;;;;22.50;50.30;101448.75;4961631;28;45504;-58
2022/07/26 01:07:38;;;;;;;;;2.25;1.00;;;;;22.47;50.43;101449.06;4962010;28;45353;-58
2022/07/26 01:10:07;;;;;;;;;2.00;0.75;;;;;22.46;50.58;101451.91;4964198;28;45997;-59
2022/07/26 01:12:33;;;;;;;;;2.25;1.00;;;;;22.41;50.25;101444.28;4965203;28;45204;-59
2022/07/26 01:14:58;;;;;;;;;1.50;0.50;;;;;22.42;50.60;101440.59;4965259;28;45277;-59
2022/07/26 01:17:24;;;;;;;;;2.00;1.00;;;;;22.39;50.40;101443.59;4965233;28;45214;-58
2022/07/26 01:19:49;;;;;;;;;1.50;1.50;;;;;22.39;50.66;101445.44;4965108;28;45714;-59
2022/07/26 01:22:15;;;;;;;;;0.75;0.75;;;;;22.37;50.39;101448.28;4965133;28;45317;-59
2022/07/26 01:24:41;;;;;;;;;1.50;0.75;;;;;22.36;50.69;101449.28;4965011;28;45503;-59
2022/07/26 01:27:06;;;;;;;;;0.00;0.00;;;;;22.35;50.73;101446.72;4965400;28;45275;-59
2022/07/26 01:29:32;;;;;;;;;1.00;1.00;;;;;22.32;50.79;101447.88;4964707;28;46098;-59
2022/07/26 01:31:58;;;;;;;;;1.75;1.00;;;;;22.27;50.50;101444.78;4963404;28;45398;-59
2022/07/26 01:34:23;;;;;;;;;0.00;0.00;;;;;22.26;50.72;101441.25;4964977;28;45264;-59
2022/07/26 01:36:49;;;;;;;;;0.00;0.00;;;;;22.23;50.88;101438.06;4963968;28;45310;-58
2022/07/26 01:39:15;;;;;;;;;1.00;1.00;;;;;22.24;50.69;101437.06;4947926;28;45967;-59
2022/07/26 01:41:41;;;;;;;;;1.75;1.00;;;;;22.22;50.89;101441.72;4964883;28;46410;-58
2022/07/26 01:44:06;;;;;;;;;1.00;0.00;;;;;22.19;51.11;101440.16;4964875;28;45215;-59
2022/07/26 01:46:33;;;;;;;;;2.00;1.50;;;;;22.17;50.75;101441.31;4963608;28;45206;-59
2022/07/26 01:49:00;;;;;;;;;2.50;1.00;;;;;22.14;50.81;101437.09;4964597;28;45250;-59
2022/07/26 01:51:26;;;;;;;;;2.50;1.00;;;;;22.12;51.07;101443.59;4964575;28;45440;-59
2022/07/26 01:53:52;;;;;;;;;1.00;0.00;;;;;22.12;51.16;101443.59;4964623;28;45500;-59
2022/07/26 01:56:17;;;;;;;;;2.00;0.00;;;;;22.10;51.13;101445.59;4964542;28;45433;-59
2022/07/26 01:58:44;;;;;;;;;1.00;1.00;;;;;22.06;51.09;101441.50;4964426;28;45345;-59
2022/07/26 02:01:09;;;;;;;;;0.75;0.75;;;;;22.01;51.20;101436.56;4964604;28;45147;-59
2022/07/26 02:03:35;;;;;;;;;1.00;0.25;;;;;21.99;50.98;101443.94;4964654;28;45292;-59
2022/07/26 02:06:01;;;;;;;;;1.50;1.00;;;;;21.97;51.12;101435.19;4964718;28;45293;-59
2022/07/26 02:08:27;;;;;;;;;0.75;0.75;;;;;21.94;51.30;101440.81;4964335;28;45322;-59
2022/07/26 02:10:59;;;;;;;;;0.25;0.25;;;;;21.90;51.29;101440.28;4964245;28;45231;-58
2022/07/26 02:13:32;;;;;;;;;3.00;0.00;;;;;21.89;51.31;101443.97;4964534;28;45163;-59
2022/07/26 02:15:58;;;;;;;;;1.00;1.00;;;;;21.87;51.65;101440.56;4964566;28;45500;-59
2022/07/26 02:18:25;;;;;;;;;1.00;1.00;;;;;21.85;51.39;101447.91;4964059;28;45443;-58
2022/07/26 02:20:51;;;;;;;;;2.25;0.75;;;;;21.83;51.63;101447.22;4963712;28;45261;-59
2022/07/26 02:23:16;;;;;;;;;1.50;0.50;;;;;21.82;51.57;101445.56;4964357;28;45242;-58
2022/07/26 02:25:42;;;;;;;;;0.50;0.50;;;;;21.81;51.81;101448.38;4964101;28;45184;-59
2022/07/26 02:28:07;;;;;;;;;0.00;0.00;;;;;21.77;51.89;101449.66;4964060;28;45291;-59
2022/07/26 02:30:33;;;;;;;;;0.75;0.00;;;;;21.73;51.92;101444.59;4964195;28;45302;-59
2022/07/26 02:32:58;;;;;;;;;2.25;0.75;;;;;21.72;52.12;101450.06;4964019;28;45267;-58
2022/07/26 02:35:24;;;;;;;;;1.00;0.50;;;;;21.70;51.97;101447.53;4964221;28;45415;-59
2022/07/26 02:37:49;;;;;;;;;0.50;0.00;;;;;21.70;52.28;101447.53;4958214;28;45313;-59
2022/07/26 02:40:15;;;;;;;;;1.00;0.00;;;;;21.70;52.15;101449.38;4952916;28;45314;-58
2022/07/26 02:42:40;;;;;;;;;1.00;1.00;;;;;21.70;52.25;101444.88;4944890;28;45343;-59
2022/07/26 02:45:06;;;;;;;;;2.00;0.00;;;;;21.68;52.44;101446.84;4944814;28;45504;-59
2022/07/26 02:47:32;;;;;;;;;2.25;0.00;;;;;21.66;52.43;101440.81;4944242;28;45457;-59
2022/07/26 02:49:58;;;;;;;;;1.00;1.00;;;;;21.63;52.55;101448.28;4944470;28;45349;-59
2022/07/26 02:52:23;;;;;;;;;0.00;0.00;;;;;21.57;52.51;101452.41;4944589;28;45292;-59
2022/07/26 02:54:49;;;;;;;;;0.75;0.75;;;;;21.57;52.59;101446.19;4944535;28;45270;-58
2022/07/26 02:57:15;;;;;;;;;0.25;0.25;;;;;21.54;52.66;101451.81;4944121;28;45254;-59
2022/07/26 02:59:40;;;;;;;;;0.00;0.00;;;;;21.50;52.74;101447.75;4944553;28;45233;-58
2022/07/26 03:02:06;;;;;;;;;1.00;1.00;;;;;21.47;52.86;101448.88;4948599;28;45257;-58
2022/07/26 03:04:31;;;;;;;;;3.00;1.00;;;;;21.41;52.79;101444.97;4963797;28;45477;-59
2022/07/26 03:06:57;;;;;;;;;2.25;1.00;;;;;21.42;53.07;101449.31;4963535;28;45329;-59
2022/07/26 03:09:22;;;;;;;;;1.75;0.75;;;;;21.41;53.00;101454.84;4963463;28;45240;-58
2022/07/26 03:11:48;;;;;;;;;3.00;1.00;;;;;21.39;52.77;101460.31;4963610;28;45251;-59
2022/07/26 03:14:13;;;;;;;;;1.00;0.00;;;;;21.39;53.41;101459.47;4963605;28;45314;-60
2022/07/26 03:16:39;;;;;;;;;2.00;1.00;;;;;21.38;53.46;101458.63;4963162;28;45720;-59
2022/07/26 03:19:19;;;;;;;;;0.25;0.25;;;;;21.37;53.61;101456.09;4941348;28;45276;-59
2022/07/26 03:21:45;;;;;;;;;0.75;0.50;;;;;21.31;53.67;101452.16;4963565;28;45215;-58
2022/07/26 03:24:10;;;;;;;;;3.00;1.00;;;;;21.29;53.71;101456.81;4963310;28;45218;-59
2022/07/26 03:26:36;;;;;;;;;3.25;2.00;;;;;21.28;53.84;101465.84;4963347;28;46276;-59
2022/07/26 03:29:01;;;;;;;;;0.75;0.75;;;;;21.25;53.98;101465.22;4963472;28;45207;-58
2022/07/26 03:31:27;;;;;;;;;2.00;1.00;;;;;21.24;54.04;101466.22;4963177;28;45230;-60
2022/07/26 03:33:52;;;;;;;;;1.75;1.00;;;;;21.23;54.13;101460.03;4962426;28;45175;-60
2022/07/26 03:36:18;;;;;;;;;4.00;1.00;;;;;21.21;54.07;101467.38;4962884;28;45436;-59
2022/07/26 03:38:43;;;;;;;;;1.00;1.00;;;;;21.17;54.27;101468.63;4946789;28;45390;-60
2022/07/26 03:41:09;;;;;;;;;0.75;0.75;;;;;21.15;54.71;101466.09;4961756;28;45549;-59
2022/07/26 03:43:34;;;;;;;;;1.25;1.00;;;;;21.14;54.43;101468.91;4963106;28;45208;-60
2022/07/26 03:46:00;;;;;;;;;2.50;1.00;;;;;21.11;54.61;101467.38;4962631;28;45416;-60
2022/07/26 03:48:25;;;;;;;;;1.00;1.00;;;;;21.12;54.64;101470.91;4963214;28;45334;-59
2022/07/26 03:50:51;;;;;;;;;1.00;1.00;;;;;21.12;54.97;101477.09;4962963;28;45381;-60
2022/07/26 03:53:17;;;;;;;;;2.75;1.75;;;;;21.12;55.08;101478.94;4963111;28;45437;-60
2022/07/26 03:58:26;;;;;;;;;1.75;1.25;;;;;21.11;54.84;101480.78;4962931;28;45396;-60
2022/07/26 04:00:52;;;;;;;;;1.75;0.75;;;;;21.12;55.20;101473.56;4962774;28;45496;-58
2022/07/26 04:03:17;;;;;;;;;1.00;1.00;;;;;21.13;55.05;101480.63;4962772;28;45432;-58
2022/07/26 04:05:43;;;;;;;;;1.00;1.00;;;;;21.13;55.23;101472.59;4962583;28;46095;-58
2022/07/26 04:08:08;;;;;;;;;3.00;1.50;;;;;21.14;55.27;101480.47;4977558;28;45360;-58
2022/07/26 04:10:34;;;;;;;;;1.00;1.00;;;;;21.13;55.25;101484.16;4962863;28;45748;-60
2022/07/26 04:12:59;;;;;;;;;2.50;0.50;;;;;21.11;55.18;101475.41;4962653;28;45433;-59
2022/07/26 04:15:25;;;;;;;;;3.25;1.75;;;;;21.09;55.30;101484.56;4962528;28;45354;-58
2022/07/26 04:17:50;;;;;;;;;1.50;1.00;;;;;21.07;55.65;101479.34;4962482;28;45215;-60
2022/07/26 04:20:16;;;;;;;;;2.75;1.75;;;;;21.08;55.85;101483.72;4962801;28;45375;-60
2022/07/26 04:22:42;;;;;;;;;1.75;1.00;;;;;21.08;55.76;101483.72;4962685;28;45429;-58
2022/07/26 04:25:08;;;;;;;;;0.75;0.00;;;;;21.09;55.96;101473.84;4962230;28;45334;-60
2022/07/26 04:27:34;;;;;;;;;2.25;1.00;;;;;21.08;55.96;101480.19;4962436;28;45219;-60
2022/07/26 04:30:00;;;;;;;;;0.00;0.00;;;;;21.06;56.07;101477.66;4962532;28;45350;-60
2022/07/26 04:32:26;;;;;;;;;1.75;0.75;;;;;21.07;55.93;101481.19;4962176;28;45412;-60
2022/07/26 04:34:51;;;;;;;;;3.00;1.75;;;;;21.08;55.75;101477.50;4962075;28;46107;-61
2022/07/26 04:37:17;;;;;;;;;0.75;0.75;;;;;21.08;55.94;101477.50;4957291;28;45401;-60
2022/07/26 04:39:42;;;;;;;;;1.75;1.25;;;;;21.08;56.20;101478.34;4949658;28;45270;-60
2022/07/26 04:42:08;;;;;;;;;1.50;1.50;;;;;21.10;56.35;101492.47;4962102;28;45333;-60
2022/07/26 04:44:34;;;;;;;;;0.25;0.25;;;;;21.11;56.11;101480.78;4976618;28;46297;-58
2022/07/26 04:47:01;;;;;;;;;1.00;1.00;;;;;21.11;56.32;101494.16;4961835;28;45322;-58
2022/07/26 04:49:26;;;;;;;;;0.75;0.75;;;;;21.11;56.05;101493.31;4962140;28;45223;-58
2022/07/26 04:51:52;;;;;;;;;3.50;0.75;;;;;21.10;56.41;101500.53;4961857;28;45453;-58
2022/07/26 04:54:21;;;;;;;;;3.00;1.00;;;;;21.11;56.19;101501.34;4961643;28;46408;-58
2022/07/26 04:56:47;;;;;;;;;2.50;1.75;;;;;21.13;56.55;101496.69;4961839;28;45341;-58
2022/07/26 04:59:13;;;;;;;;;1.75;1.75;;;;;21.15;56.48;101500.06;4962152;28;45367;-58
2022/07/26 05:01:38;;;;;;;;;6.25;1.75;;;;;21.14;56.27;101499.22;4961732;28;45300;-58
2022/07/26 05:04:04;;;;;;;;;2.75;1.00;;;;;21.16;56.65;101499.94;4961896;28;45401;-58
2022/07/26 05:06:31;;;;;;;;;3.25;2.25;;;;;21.17;56.43;101503.44;4961698;28;45275;-59
2022/07/26 05:08:57;;;;;;;;;2.50;0.75;;;;;21.18;56.67;101507.84;4961945;28;45346;-58
2022/07/26 05:11:23;;;;;;;;;2.75;2.00;;;;;21.17;56.78;101507.00;4961848;28;45394;-58
2022/07/26 05:13:49;;;;;;;;;1.25;1.25;;;;;21.18;56.76;101502.50;4961438;28;46323;-59
2022/07/26 05:16:14;;;;;;;;;2.75;1.00;;;;;21.20;56.83;101516.59;4961380;28;45252;-58
2022/07/26 05:18:40;;;;;;;;;1.50;1.50;;;;;21.22;56.83;101511.09;4961874;28;45462;-58
2022/07/26 05:21:05;;;;;;;;;0.75;0.75;;;;;21.23;56.82;101513.63;4961775;28;45629;-58
2022/07/26 05:23:31;;;;;;;;;2.00;2.00;;;;;21.22;56.81;101517.28;4961636;28;45396;-59
2022/07/26 05:25:56;;;;;;;;;3.25;1.75;;;;;21.23;57.01;101515.44;4961206;28;45363;-59
2022/07/26 05:28:22;;;;;;;;;3.00;2.25;;;;;21.24;56.76;101515.31;4961891;28;45313;-59
2022/07/26 05:30:47;;;;;;;;;5.00;2.25;;;;;21.26;56.91;101523.22;4976617;28;45500;-59
2022/07/26 05:33:13;;;;;;;;;3.00;1.50;;;;;21.22;56.87;101521.81;4961432;28;45889;-60
2022/07/26 05:35:38;;;;;;;;;2.75;2.25;;;;;21.21;56.90;101525.47;4961467;28;45370;-59
2022/07/26 05:38:04;;;;;;;;;2.00;0.75;;;;;21.19;56.80;101523.78;4950359;28;45291;-59
2022/07/26 05:40:29;;;;;;;;;4.25;1.75;;;;;21.21;57.22;101520.13;4954884;28;45423;-59
2022/07/26 05:42:55;;;;;;;;;1.75;0.75;;;;;21.24;56.82;101519.81;4961405;28;45290;-59
2022/07/26 05:45:20;;;;;;;;;1.50;1.00;;;;;21.26;57.18;101524.06;4961490;28;45237;-59
2022/07/26 05:47:51;;;;;;;;;3.25;2.00;;;;;21.27;57.14;101524.91;4961343;28;45171;-59
2022/07/26 05:50:18;;;;;;;;;1.50;1.50;;;;;21.30;57.26;101521.97;4961523;28;45283;-59
2022/07/26 05:52:44;;;;;;;;;2.75;1.50;;;;;21.33;57.34;101529.72;4961086;28;45489;-59
2022/07/26 05:55:09;;;;;;;;;1.00;1.00;;;;;21.31;57.25;101519.16;4960893;28;45435;-59
2022/07/26 05:57:35;;;;;;;;;3.00;2.00;;;;;21.29;57.12;101523.81;4964963;28;45224;-59
2022/07/26 06:00:00;;;;;;;;;2.75;2.00;;;;;21.30;57.22;101525.50;4964837;28;45437;-59
2022/07/26 06:02:26;;;;;;;;;4.25;2.75;;;;;21.28;57.17;101526.63;4964505;28;46270;-59
2022/07/26 06:04:51;;;;;;;;;7.75;2.00;;;;;21.28;57.32;101521.28;4964560;28;45209;-59
2022/07/26 06:07:17;;;;;;;;;3.75;2.00;;;;;21.29;57.47;101525.66;4964739;28;45507;-59
2022/07/26 06:09:42;;;;;;;;;3.75;3.25;;;;;21.29;57.40;101533.69;4964592;28;45333;-59
2022/07/26 06:12:08;;;;;;;;;1.75;1.50;;;;;21.28;57.39;101538.19;4964342;28;45257;-59
2022/07/26 06:14:33;;;;;;;;;4.25;2.75;;;;;21.30;57.29;101538.91;4964190;28;45172;-59
2022/07/26 06:16:59;;;;;;;;;5.75;3.00;;;;;21.31;57.52;101539.75;4979276;28;45244;-59
2022/07/26 06:19:24;;;;;;;;;2.25;1.25;;;;;21.29;57.17;101536.38;4964604;28;45242;-59
2022/07/26 06:21:50;;;;;;;;;3.25;2.25;;;;;21.29;57.68;101541.72;4964362;28;46058;-59
2022/07/26 06:24:15;;;;;;;;;2.75;1.00;;;;;21.28;57.50;101543.56;4963849;28;45274;-59
2022/07/26 06:26:41;;;;;;;;;2.50;2.00;;;;;21.29;57.65;101542.56;4979171;28;45437;-59
2022/07/26 06:29:07;;;;;;;;;4.75;1.00;;;;;21.31;57.45;101545.94;4964282;28;45317;-59
2022/07/26 06:31:33;;;;;;;;;3.25;2.50;;;;;21.32;57.65;101549.47;4963913;28;46255;-59
2022/07/26 06:33:58;;;;;;;;;4.75;2.75;;;;;21.34;57.46;101550.19;4963916;28;45411;-60
2022/07/26 06:36:24;;;;;;;;;5.25;3.25;;;;;21.33;57.70;101548.47;4963881;28;45317;-60
2022/07/26 06:38:49;;;;;;;;;7.75;4.75;;;;;21.34;57.56;101553.72;4946669;28;45307;-59
2022/07/26 06:41:15;;;;;;;;;2.50;1.50;;;;;21.36;57.77;101553.56;4962235;28;47061;-59
2022/07/26 06:43:40;;;;;;;;;7.75;3.75;;;;;21.37;57.58;101553.44;4963942;28;45330;-59
2022/07/26 06:46:06;;;;;;;;;2.25;2.25;;;;;21.39;57.71;101553.28;4963961;28;45215;-59
2022/07/26 06:48:31;;;;;;;;;2.75;1.75;;;;;21.41;57.61;101556.69;4964025;28;45239;-59
2022/07/26 06:50:57;;;;;;;;;3.75;2.50;;;;;21.42;57.75;101547.66;4963847;28;45246;-59
2022/07/26 06:53:22;;;;;;;;;3.75;2.50;;;;;21.44;57.60;101553.72;4963773;28;45230;-59
2022/07/26 06:55:47;;;;;;;;;5.00;3.00;;;;;21.44;57.61;101551.88;4963536;28;45234;-59
2022/07/26 06:58:13;;;;;;;;;2.75;2.00;;;;;21.43;57.68;101557.38;4964013;28;45588;-59
2022/07/26 07:00:38;;;;;;;;;1.75;1.75;;;;;21.41;57.58;101559.38;4963656;28;45996;-59
2022/07/26 07:03:04;;;;;;;;;3.50;2.75;;;;;21.41;57.70;101562.06;4963516;28;45219;-59
2022/07/26 07:05:29;;;;;;;;;4.50;1.75;;;;;21.44;57.62;101556.41;4963619;28;45252;-59
2022/07/26 07:07:55;;;;;;;;;5.00;3.75;;;;;21.44;57.54;101559.91;4963351;28;45364;-59
2022/07/26 07:10:20;;;;;;;;;3.75;3.00;;;;;21.46;57.54;101562.44;4963028;28;45831;-59
2022/07/26 07:12:46;;;;;;;;;3.50;1.75;;;;;21.48;57.53;101563.16;4963338;28;45516;-58
2022/07/26 07:15:12;;;;;;;;;2.25;2.25;;;;;21.51;57.66;101562.03;4963308;28;45397;-59
2022/07/26 07:17:37;;;;;;;;;5.75;3.75;;;;;21.51;57.42;101565.56;4963148;28;45392;-59
2022/07/26 07:20:04;;;;;;;;;4.25;2.00;;;;;21.50;57.71;101563.03;4963037;28;45414;-59
2022/07/26 07:22:30;;;;;;;;;9.00;3.00;;;;;21.51;57.42;101568.25;4963277;28;45339;-59
2022/07/26 07:24:56;;;;;;;;;6.75;2.00;;;;;21.51;57.47;101573.63;4961587;28;45292;-59
2022/07/26 07:27:22;;;;;;;;;3.00;3.00;;;;;21.49;57.66;101569.34;4963457;28;45241;-59
2022/07/26 07:29:48;;;;;;;;;2.50;1.75;;;;;21.50;57.42;101571.06;4962823;28;45247;-59
2022/07/26 07:32:13;;;;;;;;;4.00;3.00;;;;;21.53;57.49;101570.78;4963105;28;45210;-59
2022/07/26 07:34:39;;;;;;;;;3.25;3.25;;;;;21.57;57.43;101566.84;4962958;28;45187;-59
2022/07/26 07:37:04;;;;;;;;;2.00;2.00;;;;;21.60;57.62;101572.75;4960072;28;45192;-59
2022/07/26 07:39:30;;;;;;;;;1.25;1.25;;;;;21.63;57.41;101574.28;4948613;28;45275;-60
2022/07/26 07:41:56;;;;;;;;;4.00;3.00;;;;;21.64;57.68;101567.94;4963211;28;45399;-59
2022/07/26 07:44:21;;;;;;;;;2.50;1.75;;;;;21.69;57.31;101576.41;4963109;28;45318;-59
2022/07/26 07:46:47;;;;;;;;;2.00;2.00;;;;;21.71;57.26;101580.63;4963086;28;45357;-59
2022/07/26 07:49:12;;;;;;;;;2.75;2.00;;;;;21.73;57.31;101573.31;4962850;28;46031;-59
2022/07/26 07:51:38;;;;;;;;;3.00;2.00;;;;;21.72;57.14;101578.81;4962916;28;45429;-59
2022/07/26 07:54:03;;;;;;;;;1.50;1.50;;;;;21.71;57.08;101575.28;4962786;28;45417;-59
2022/07/26 07:56:29;;;;;;;;;4.75;4.75;;;;;21.77;57.18;101576.53;4963042;28;45274;-59
2022/07/26 07:58:55;;;;;;;;;4.00;2.25;;;;;21.79;56.92;101579.09;4962598;28;45361;-59
2022/07/26 08:01:20;;;;;;;;;1.00;1.00;;;;;21.80;56.90;101576.25;4962863;28;45212;-59
2022/07/26 08:03:46;;;;;;;;;3.75;1.75;;;;;21.82;56.81;101574.28;4962869;28;45197;-59
2022/07/26 08:06:11;;;;;;;;;2.00;2.00;;;;;21.84;56.68;101577.66;4962863;28;45592;-59
2022/07/26 08:08:37;;;;;;;;;2.00;2.00;;;;;21.87;56.82;101577.38;4962387;28;45171;-59
2022/07/26 08:11:04;;;;;;;;;4.00;2.25;;;;;21.90;56.51;101576.25;4962468;28;45231;-59
2022/07/26 08:13:29;;;;;;;;;6.00;2.50;;;;;21.95;56.67;101582.88;4962435;28;45159;-59
2022/07/26 08:15:55;;;;;;;;;4.50;3.50;;;;;22.00;56.48;101579.75;4962267;28;45504;-59
2022/07/26 08:18:22;;;;;;;;;3.75;2.75;;;;;22.00;56.19;101583.28;4961413;28;45429;-59
2022/07/26 08:20:47;;;;;;;;;5.50;2.75;;;;;22.04;56.19;101586.53;4962554;28;45278;-59
2022/07/26 08:23:13;;;;;;;;;4.50;2.75;;;;;22.04;55.97;101581.19;4962477;28;45332;-59
2022/07/26 08:25:39;;;;;;;;;2.00;2.00;;;;;22.06;56.05;101581.03;4962300;28;45674;-59
2022/07/26 08:28:04;;;;;;;;;3.50;1.50;;;;;22.10;55.94;101585.97;4962071;28;46115;-59
2022/07/26 08:30:33;;;;;;;;;4.25;2.00;;;;;22.14;55.64;101592.75;4962238;28;45203;-59
2022/07/26 08:32:58;;;;;;;;;5.50;2.00;;;;;22.19;55.96;101584.25;4961936;28;45159;-59
2022/07/26 08:35:24;;;;;;;;;2.75;2.75;;;;;22.25;55.74;101584.50;4962522;28;45379;-59
2022/07/26 08:37:50;;;;;;;;;5.25;4.00;;;;;22.26;55.66;101591.56;4952632;28;46057;-58
2022/07/26 08:40:15;;;;;;;;;2.00;2.00;;;;;22.28;55.38;101584.25;4953594;28;45357;-58
2022/07/26 08:42:51;;;;;;;;;0.00;0.00;;;;;22.37;55.07;101592.41;4962016;28;45326;-59
2022/07/26 08:45:24;;;;;;;;;6.75;3.00;;;;;22.43;55.18;101595.31;4962195;28;45406;-59
2022/07/26 08:47:50;;;;;;;;;4.50;2.75;;;;;22.48;55.32;101592.22;4961908;28;46083;-59
2022/07/26 08:50:17;;;;;;;;;7.75;3.75;;;;;22.52;55.03;101596.31;4961901;28;45394;-60
2022/07/26 08:52:43;;;;;;;;;4.25;2.00;;;;;22.52;54.78;101596.31;4962012;28;45328;-60
2022/07/26 08:55:10;;;;;;;;;3.00;2.00;;;;;22.49;54.67;101597.44;4960394;28;45649;-60
2022/07/26 08:57:36;;;;;;;;;3.75;3.75;;;;;22.50;54.72;101606.31;4961810;28;46125;-60
2022/07/26 09:00:14;;;;;;;;;1.75;1.75;;;;;22.46;54.55;101592.38;4961476;28;45261;-60
2022/07/26 09:02:41;;;;;;;;;7.50;3.00;;;;;22.48;54.33;101594.91;4961556;28;45357;-59
2022/07/26 09:05:06;;;;;;;;;4.00;3.00;;;;;22.47;54.30;101599.41;4961549;28;45269;-59
2022/07/26 09:07:33;;;;;;;;;4.00;3.00;;;;;22.51;54.37;101606.22;4961257;28;45326;-60
2022/07/26 09:10:07;;;;;;;;;4.25;3.25;;;;;22.54;53.90;101597.00;4961086;28;45346;-60
2022/07/26 09:12:34;;;;;;;;;1.50;1.25;;;;;22.56;54.21;101609.28;4961432;28;45330;-60
2022/07/26 09:15:02;;;;;;;;;3.75;3.00;;;;;22.58;53.94;101606.44;4961602;28;45462;-59
2022/07/26 09:17:43;;;;;;;;;3.75;2.25;;;;;22.58;53.63;101609.97;4960976;28;46633;-60
2022/07/26 09:20:18;;;;;;;;;3.75;1.50;;;;;22.57;53.44;101608.28;4961146;28;45382;-60
2022/07/26 09:23:08;;;;;;;;;5.75;2.00;;;;;22.53;53.75;101609.59;4961138;28;45489;-60
2022/07/26 09:25:39;;;;;;;;;3.50;2.00;;;;;22.51;53.86;101614.25;4961203;28;45479;-60
2022/07/26 09:28:26;;;;;;;;;5.50;2.50;;;;;22.55;53.66;101607.59;4960000;28;46568;-59
2022/07/26 09:31:03;;;;;;;;;5.00;2.50;;;;;22.62;53.40;101621.28;4961162;28;45285;-59
2022/07/26 09:33:49;;;;;;;;;2.50;2.50;;;;;22.71;53.28;101620.38;4945299;28;45219;-59
2022/07/26 09:36:17;;;;;;;;;2.75;2.25;;;;;22.73;53.12;101618.38;4947798;28;45466;-60
2022/07/26 09:38:48;;;;;;;;;6.25;3.00;;;;;22.76;52.93;101612.72;4963613;28;45472;-59
2022/07/26 09:41:25;;;;;;;;;3.00;2.00;;;;;22.82;52.99;101622.00;4964435;28;45304;-59
2022/07/26 09:43:51;;;;;;;;;3.25;3.25;;;;;22.79;53.17;101620.47;4964626;28;45617;-59
2022/07/26 09:46:17;;;;;;;;;4.00;2.00;;;;;22.82;52.54;101624.69;4964515;28;45356;-59
2022/07/26 09:48:43;;;;;;;;;6.00;3.50;;;;;22.84;52.66;101628.13;4963818;28;45304;-59
2022/07/26 09:51:09;;;;;;;;;3.50;2.00;;;;;22.88;52.83;101629.53;4964290;28;45388;-60
2022/07/26 09:53:44;;;;;;;;;3.00;3.00;;;;;22.88;52.35;101626.00;4964026;28;45507;-60
2022/07/26 09:56:10;;;;;;;;;3.00;3.00;;;;;22.88;52.23;101632.22;4964696;28;45355;-60
2022/07/26 09:58:37;;;;;;;;;3.25;2.50;;;;;22.86;51.81;101622.63;4963807;28;45330;-59
2022/07/26 10:01:07;;;;;;;;;4.25;4.00;;;;;22.90;52.27;101632.06;4964132;28;45360;-59
2022/07/26 10:03:34;;;;;;;;;2.00;2.00;;;;;22.96;52.15;101634.16;4964316;28;45369;-59
2022/07/26 10:06:00;;;;;;;;;3.25;2.50;;;;;23.02;51.38;101631.72;4964388;28;45266;-59
2022/07/26 10:08:26;;;;;;;;;3.50;3.00;;;;;23.12;51.17;101619.06;4963981;28;45377;-59
2022/07/26 10:10:55;;;;;;;;;2.50;2.00;;;;;23.24;51.21;101627.75;4963741;28;45249;-59
2022/07/26 10:13:22;;;;;;;;;4.00;2.75;;;;;23.31;51.46;101634.22;4964284;28;45306;-59
2022/07/26 10:15:49;;;;;;;;;7.00;3.00;;;;;23.33;51.45;101639.44;4964165;28;45393;-59
2022/07/26 10:18:36;;;;;;;;;5.25;3.00;;;;;23.38;51.01;101634.44;4964049;28;46414;-59
2022/07/26 10:21:31;;;;;;;;;6.50;4.00;;;;;23.43;50.74;101639.38;4963755;28;45231;-60
2022/07/26 10:24:00;;;;;;;;;3.00;3.00;;;;;23.48;50.47;101634.41;4963780;28;45235;-59
2022/07/26 10:26:32;;;;;;;;;10.00;9.50;;;;;23.50;50.50;101630.53;4963548;28;45294;-59
2022/07/26 10:29:16;;;;;;;;;3.25;2.00;;;;;23.52;49.92;101631.22;4963424;28;45341;-60
2022/07/26 10:31:45;;;;;;;;;3.00;2.00;;;;;23.58;49.60;101630.63;4963892;28;45419;-59
2022/07/26 10:34:28;;;;;;;;;4.25;1.00;;;;;23.62;49.32;101631.16;4963643;28;45367;-59
2022/07/26 10:36:58;;;;;;;;;5.00;3.50;;;;;23.66;49.03;101629.88;4962040;28;45203;-60
2022/07/26 10:39:24;;;;;;;;;48.50;39.00;;;;;23.74;48.84;101631.78;4947946;28;45402;-60
2022/07/26 10:42:07;;;;;;;;;5.25;1.50;;;;;23.81;49.45;101630.19;4963018;28;45305;-59
2022/07/26 10:44:34;;;;;;;;;6.00;3.00;;;;;23.84;49.31;101635.25;4963760;28;45456;-60
2022/07/26 10:47:06;;;;;;;;;2.25;2.25;;;;;23.82;48.64;101627.31;4963793;28;45316;-60
2022/07/26 10:49:38;;;;;;;;;1.75;1.75;;;;;23.79;48.46;101634.88;4963606;28;45431;-60
2022/07/26 10:52:12;;;;;;;;;1.75;1.75;;;;;23.78;48.54;101633.16;4963639;28;45473;-60
2022/07/26 10:54:58;;;;;;;;;1.25;1.00;;;;;23.80;48.72;101636.56;4963416;28;45270;-60
2022/07/26 10:57:32;;;;;;;;;3.25;3.00;;;;;23.82;48.17;101632.72;4963522;28;45192;-60
2022/07/26 10:59:59;;;;;;;;;2.50;1.00;;;;;23.81;48.05;101635.56;4963372;28;45274;-60
2022/07/26 11:02:34;;;;;;;;;1.00;1.00;;;;;23.83;47.71;101630.84;4963548;28;45256;-60
2022/07/26 11:05:01;;;;;;;;;2.00;1.00;;;;;23.84;47.47;101624.47;4963411;28;45282;-60
2022/07/26 11:07:28;;;;;;;;;1.25;1.00;;;;;23.88;47.28;101631.25;4963533;28;45330;-59
2022/07/26 11:09:57;;;;;;;;;1.00;1.00;;;;;23.88;47.53;101633.94;4962997;28;45484;-59
2022/07/26 11:12:23;;;;;;;;;2.25;1.00;;;;;23.85;47.28;101627.00;4963581;28;45349;-59
2022/07/26 11:14:50;;;;;;;;;6.25;2.25;;;;;23.86;47.41;101630.56;4963345;28;45479;-60
2022/07/26 11:17:29;;;;;;;;;1.00;1.00;;;;;23.84;46.81;101628.00;4963365;28;45491;-59
2022/07/26 11:19:56;;;;;;;;;6.75;4.00;;;;;23.83;46.10;101625.47;4963317;28;46089;-60
2022/07/26 11:22:30;;;;;;;;;1.50;1.00;;;;;23.75;46.04;101630.78;4963300;28;45424;-60
2022/07/26 11:24:56;;;;;;;;;5.50;3.25;;;;;23.72;45.85;101628.44;4963118;28;45297;-59
2022/07/26 11:27:22;;;;;;;;;1.50;1.00;;;;;23.70;46.29;101627.72;4963372;28;45616;-59